createdAt,value
2019-05-10T00:01:54.768Z,5.17
2019-05-10T00:04:41.900Z,5.72
2019-05-10T00:07:30.271Z,5.70
2019-05-10T00:09:58.903Z,4.70
2019-05-10T00:12:35.799Z,5.00
2019-05-10T00:15:07.445Z,5.40
2019-05-10T00:17:38.528Z,5.47
2019-05-10T00:20:08.096Z,5.28
2019-05-10T00:22:37.438Z,5.30
2019-05-10T00:25:07.812Z,4.95
2019-05-10T00:27:38.350Z,4.80
2019-05-10T00:30:08.078Z,5.25
2019-05-10T00:32:37.486Z,5.28
2019-05-10T00:35:07.299Z,5.17
2019-05-10T00:37:36.906Z,5.22
2019-05-10T00:40:08.083Z,5.40
2019-05-10T00:42:37.509Z,5.40
2019-05-10T00:45:08.071Z,5.30
2019-05-10T00:47:37.429Z,5.28
2019-05-10T00:50:07.353Z,5.62
2019-05-10T00:52:36.858Z,5.20
2019-05-10T00:55:18.517Z,5.62
2019-05-10T00:57:39.038Z,4.70
2019-05-10T01:00:09.699Z,4.95
2019-05-10T01:02:39.048Z,6.00
2019-05-10T01:05:08.557Z,4.67
2019-05-10T01:07:37.960Z,5.08
2019-05-10T01:10:07.937Z,5.10
2019-05-10T01:12:37.797Z,4.67
2019-05-10T01:15:08.502Z,4.60
2019-05-10T01:17:37.848Z,4.55
2019-05-10T01:20:08.252Z,4.83
2019-05-10T01:22:37.794Z,4.35
2019-05-10T01:25:07.736Z,4.97
2019-05-10T01:27:37.429Z,4.97
2019-05-10T01:30:07.805Z,4.17
2019-05-10T01:32:37.154Z,4.83
2019-05-10T01:35:07.731Z,4.40
2019-05-10T01:37:37.089Z,4.58
2019-05-10T01:40:06.981Z,4.17
2019-05-10T01:42:36.616Z,4.78
2019-05-10T01:45:07.778Z,4.62
2019-05-10T01:47:37.103Z,4.03
2019-05-10T01:50:07.696Z,4.90
2019-05-10T01:52:37.022Z,4.40
2019-05-10T01:55:09.301Z,4.87
2019-05-10T01:57:38.635Z,3.60
2019-05-10T02:00:10.293Z,4.70
2019-05-10T02:02:39.626Z,4.37
2019-05-10T02:05:09.526Z,4.42
2019-05-10T02:07:39.831Z,3.80
2019-05-10T02:10:10.308Z,3.65
2019-05-10T02:12:39.723Z,4.22
2019-05-10T02:15:10.320Z,4.50
2019-05-10T02:17:39.654Z,5.28
2019-05-10T02:20:10.807Z,4.50
2019-05-10T02:22:40.041Z,4.95
2019-05-10T02:25:09.708Z,5.03
2019-05-10T02:27:39.053Z,4.70
2019-05-10T02:30:08.974Z,4.97
2019-05-10T02:32:38.357Z,5.03
2019-05-10T02:35:08.232Z,4.30
2019-05-10T02:37:37.654Z,4.83
2019-05-10T02:40:08.041Z,5.35
2019-05-10T02:42:37.376Z,5.37
2019-05-10T02:45:12.599Z,5.50
2019-05-10T02:47:42.032Z,4.97
2019-05-10T02:50:11.911Z,5.72
2019-05-10T02:52:41.240Z,5.80
2019-05-10T02:55:10.944Z,5.17
2019-05-10T02:57:40.911Z,5.87
2019-05-10T03:00:10.509Z,5.62
2019-05-10T03:02:40.989Z,5.05
2019-05-10T03:05:10.363Z,6.35
2019-05-10T03:07:40.073Z,5.90
2019-05-10T03:10:11.480Z,5.78
2019-05-10T03:12:41.684Z,5.60
2019-05-10T03:15:12.891Z,5.90
2019-05-10T03:17:42.733Z,5.95
2019-05-10T03:20:13.173Z,5.70
2019-05-10T03:22:43.753Z,6.08
2019-05-10T03:25:14.608Z,5.65
2019-05-10T03:27:44.322Z,6.30
2019-05-10T03:30:14.188Z,6.55
2019-05-10T03:32:43.585Z,6.67
2019-05-10T03:35:13.137Z,6.70
2019-05-10T03:37:42.999Z,6.55
2019-05-10T03:40:13.002Z,7.95
2019-05-10T03:42:42.411Z,7.53
2019-05-10T03:45:12.246Z,7.78
2019-05-10T03:47:41.690Z,7.60
2019-05-10T03:50:11.200Z,8.05
2019-05-10T03:52:40.542Z,7.80
2019-05-10T03:55:10.478Z,8.15
2019-05-10T03:57:39.825Z,8.43
2019-05-10T04:00:11.328Z,9.00
2019-05-10T04:02:41.259Z,8.45
2019-05-10T04:05:11.382Z,9.35
2019-05-10T04:07:40.820Z,10.08
2019-05-10T04:10:10.545Z,10.53
2019-05-10T04:12:39.873Z,10.00
2019-05-10T04:15:10.236Z,9.68
2019-05-10T04:17:39.643Z,9.48
2019-05-10T04:20:10.818Z,10.58
2019-05-10T04:22:40.447Z,10.78
2019-05-10T04:25:10.310Z,10.60
2019-05-10T04:27:39.801Z,11.50
2019-05-10T04:30:11.493Z,13.28
2019-05-10T04:32:40.978Z,12.07
2019-05-10T04:35:10.601Z,12.95
2019-05-10T04:37:39.935Z,12.80
2019-05-10T04:40:11.939Z,13.62
2019-05-10T04:42:41.010Z,14.35
2019-05-10T04:45:10.679Z,15.45
2019-05-10T04:47:40.221Z,16.57
2019-05-10T04:50:12.641Z,16.90
2019-05-10T04:52:42.439Z,18.30
2019-05-10T04:55:11.773Z,16.48
2019-05-10T04:57:50.764Z,15.32
2019-05-10T05:00:12.634Z,13.72
2019-05-10T05:02:42.089Z,15.05
2019-05-10T05:05:11.941Z,15.75
2019-05-10T05:07:41.355Z,16.67
2019-05-10T05:10:11.304Z,15.80
2019-05-10T05:12:40.652Z,15.68
2019-05-10T05:15:10.219Z,16.20
2019-05-10T05:17:39.669Z,16.00
2019-05-10T05:20:09.009Z,16.62
2019-05-10T05:22:38.626Z,16.77
2019-05-10T05:25:08.500Z,16.32
2019-05-10T05:27:37.846Z,17.62
2019-05-10T05:30:08.150Z,17.45
2019-05-10T05:32:38.455Z,17.35
2019-05-10T05:35:08.968Z,17.40
2019-05-10T05:37:39.384Z,17.45
2019-05-10T05:40:09.361Z,17.32
2019-05-10T05:42:40.922Z,17.75
2019-05-10T05:45:10.792Z,18.87
2019-05-10T05:47:42.258Z,19.00
2019-05-10T05:50:11.627Z,17.82
2019-05-10T05:52:41.003Z,19.05
2019-05-10T05:55:11.467Z,19.05
2019-05-10T05:57:40.868Z,19.27
2019-05-10T06:00:11.453Z,18.27
2019-05-10T06:02:44.911Z,15.85
2019-05-10T06:05:12.343Z,16.52
2019-05-10T06:07:41.693Z,17.32
2019-05-10T06:10:16.916Z,16.70
2019-05-10T06:12:44.438Z,16.03
2019-05-10T06:15:15.024Z,16.00
2019-05-10T06:17:44.428Z,15.60
2019-05-10T06:20:14.107Z,16.35
2019-05-10T06:22:56.142Z,15.35
2019-05-10T06:25:14.876Z,16.23
2019-05-10T06:27:44.238Z,15.65
2019-05-10T06:30:14.235Z,14.10
2019-05-10T06:32:43.809Z,14.78
2019-05-10T06:35:14.148Z,16.00
2019-05-10T06:37:44.436Z,15.90
2019-05-10T06:40:14.081Z,14.10
2019-05-10T06:42:43.390Z,15.32
2019-05-10T06:45:15.770Z,14.47
2019-05-10T06:47:47.804Z,14.75
2019-05-10T06:50:15.522Z,13.35
2019-05-10T06:52:44.896Z,14.07
2019-05-10T06:55:14.316Z,14.87
2019-05-10T06:57:43.653Z,13.43
2019-05-10T07:00:13.531Z,13.38
2019-05-10T07:02:43.098Z,13.03
2019-05-10T07:05:12.589Z,13.72
2019-05-10T07:07:44.471Z,13.53
2019-05-10T07:10:19.017Z,13.48
2019-05-10T07:12:45.493Z,13.40
2019-05-10T07:15:15.523Z,13.90
2019-05-10T07:17:47.229Z,15.00
2019-05-10T07:20:17.630Z,13.43
2019-05-10T07:22:46.991Z,12.58
2019-05-10T07:25:16.333Z,13.50
2019-05-10T07:27:45.858Z,12.55
2019-05-10T07:30:18.240Z,10.40
2019-05-10T07:32:48.553Z,10.40
2019-05-10T07:35:17.906Z,9.45
2019-05-10T07:37:47.834Z,9.00
2019-05-10T07:40:18.276Z,9.55
2019-05-10T07:42:47.590Z,8.15
2019-05-10T07:45:18.899Z,5.97
2019-05-10T07:47:48.102Z,5.47
2019-05-10T07:50:18.086Z,5.70
2019-05-10T07:52:47.443Z,5.17
2019-05-10T07:55:18.571Z,5.10
2019-05-10T07:57:47.799Z,5.55
2019-05-10T08:00:17.652Z,5.87
2019-05-10T08:02:55.022Z,4.92
2019-05-10T08:05:18.560Z,4.67
2019-05-10T08:07:49.484Z,4.95
2019-05-10T08:10:21.418Z,5.50
2019-05-10T08:12:50.931Z,5.28
2019-05-10T08:15:24.860Z,5.85
2019-05-10T08:17:51.463Z,6.53
2019-05-10T08:20:41.032Z,6.03
2019-05-10T08:22:52.539Z,6.05
2019-05-10T08:25:23.052Z,6.05
2019-05-10T08:27:55.257Z,5.65
2019-05-10T08:30:42.510Z,4.50
2019-05-10T08:33:11.967Z,4.08
2019-05-10T08:35:45.596Z,3.35
2019-05-10T08:38:12.932Z,3.30
2019-05-10T08:40:43.134Z,2.92
2019-05-10T08:43:16.397Z,2.62
2019-05-10T08:45:48.964Z,2.72
2019-05-10T08:48:14.765Z,3.08
2019-05-10T08:50:53.481Z,2.58
2019-05-10T08:53:16.603Z,2.80
2019-05-10T08:55:46.250Z,2.87
2019-05-10T08:58:23.971Z,2.75
2019-05-10T09:00:54.557Z,3.35
2019-05-10T09:03:18.761Z,2.90
2019-05-10T09:05:48.156Z,2.62
2019-05-10T09:08:20.222Z,2.70
2019-05-10T09:10:49.527Z,2.80
2019-05-10T09:13:18.847Z,3.17
2019-05-10T09:15:52.200Z,3.15
2019-05-10T09:18:19.214Z,3.20
2019-05-10T09:20:48.554Z,2.70
2019-05-10T09:23:20.014Z,2.83
2019-05-10T09:25:51.708Z,2.70
2019-05-10T09:28:21.870Z,3.00
2019-05-10T09:31:00.403Z,3.00
2019-05-10T09:33:24.167Z,3.53
2019-05-10T09:35:55.011Z,2.83
2019-05-10T09:38:28.744Z,3.20
2019-05-10T09:40:56.422Z,3.20
2019-05-10T09:43:25.847Z,2.98
2019-05-10T09:45:55.183Z,3.20
2019-05-10T09:48:24.602Z,3.80
2019-05-10T09:50:55.998Z,3.58
2019-05-10T09:53:27.483Z,3.22
2019-05-10T09:56:02.714Z,3.25
2019-05-10T09:58:28.549Z,3.02
2019-05-10T10:01:13.878Z,3.05
2019-05-10T10:03:30.091Z,3.17
2019-05-10T10:06:06.054Z,2.80
2019-05-10T10:08:31.633Z,2.60
2019-05-10T10:11:11.520Z,2.83
2019-05-10T10:13:39.972Z,2.87
2019-05-10T10:16:12.639Z,2.65
2019-05-10T10:18:37.187Z,2.45
2019-05-10T10:21:10.157Z,2.60
2019-05-10T10:23:39.041Z,3.08
2019-05-10T10:26:12.536Z,3.00
2019-05-10T10:28:39.832Z,3.00
2019-05-10T10:31:09.278Z,3.20
2019-05-10T10:33:38.676Z,3.62
2019-05-10T10:36:10.652Z,3.20
2019-05-10T10:38:45.170Z,3.45
2019-05-10T10:41:10.071Z,3.27
2019-05-10T10:43:39.403Z,3.60
2019-05-10T10:46:12.387Z,3.50
2019-05-10T10:48:43.775Z,3.72
2019-05-10T10:51:11.106Z,3.42
2019-05-10T10:53:40.952Z,3.50
2019-05-10T10:56:10.268Z,3.05
2019-05-10T10:58:39.605Z,3.80
2019-05-10T11:01:20.215Z,3.95
2019-05-10T11:03:41.234Z,3.70
2019-05-10T11:06:10.561Z,3.83
2019-05-10T11:08:41.278Z,3.90
2019-05-10T11:11:11.058Z,3.92
2019-05-10T11:13:44.883Z,4.05
2019-05-10T11:16:15.677Z,3.10
2019-05-10T11:18:42.492Z,3.85
2019-05-10T11:21:13.655Z,3.47
2019-05-10T11:23:43.300Z,3.75
2019-05-10T11:26:12.639Z,3.58
2019-05-10T11:28:44.091Z,3.62
2019-05-10T11:31:12.994Z,4.08
2019-05-10T11:33:47.564Z,3.65
2019-05-10T11:36:14.561Z,3.77
2019-05-10T11:38:47.115Z,3.87
2019-05-10T11:41:21.236Z,3.85
2019-05-10T11:43:46.127Z,3.95
2019-05-10T11:46:15.446Z,3.77
2019-05-10T11:48:44.779Z,4.42
2019-05-10T11:51:17.380Z,7.70
2019-05-10T11:53:48.967Z,9.40
2019-05-10T11:56:16.205Z,9.15
2019-05-10T11:59:04.752Z,9.30
2019-05-10T12:01:19.424Z,9.75
2019-05-10T12:03:48.103Z,10.32
2019-05-10T12:06:17.450Z,10.90
2019-05-10T12:08:46.788Z,10.90
2019-05-10T12:13:47.164Z,9.43
2019-05-10T12:16:17.146Z,10.20
2019-05-10T12:19:02.399Z,9.88
2019-05-10T12:21:17.759Z,10.38
2019-05-10T12:23:50.824Z,9.85
2019-05-10T12:26:50.350Z,10.28
2019-05-10T12:28:51.043Z,9.80
2019-05-10T12:31:21.088Z,8.28
2019-05-10T12:33:51.575Z,9.78
2019-05-10T12:36:25.584Z,9.25
2019-05-10T12:38:52.248Z,7.55
2019-05-10T12:41:23.412Z,8.05
2019-05-10T12:44:02.786Z,6.70
2019-05-10T12:46:23.661Z,5.55
2019-05-10T12:48:53.004Z,5.62
2019-05-10T12:51:22.325Z,5.92
2019-05-10T12:53:52.321Z,6.62
2019-05-10T12:56:21.679Z,5.58
2019-05-10T12:58:56.759Z,5.53
2019-05-10T13:01:25.781Z,4.72
2019-05-10T13:03:53.651Z,5.12
2019-05-10T13:06:22.979Z,4.72
2019-05-10T13:08:52.329Z,4.95
2019-05-10T13:11:25.325Z,4.30
2019-05-10T13:13:52.710Z,4.35
2019-05-10T13:16:22.115Z,3.72
2019-05-10T13:18:52.737Z,4.45
2019-05-10T13:21:23.145Z,4.42
2019-05-10T13:23:53.944Z,4.17
2019-05-10T13:26:24.481Z,4.17
2019-05-10T13:28:53.823Z,4.05
2019-05-10T13:31:23.163Z,4.53
2019-05-10T13:33:52.496Z,4.25
2019-05-10T13:36:22.147Z,4.40
2019-05-10T13:38:51.816Z,4.65
2019-05-10T13:41:24.477Z,4.12
2019-05-10T13:43:52.141Z,4.45
2019-05-10T13:46:21.476Z,5.22
2019-05-10T13:48:50.809Z,4.67
2019-05-10T13:51:20.143Z,4.67
2019-05-10T13:53:53.884Z,4.97
2019-05-10T13:56:20.546Z,4.75
2019-05-10T13:58:49.888Z,4.70
2019-05-10T14:01:19.294Z,5.30
2019-05-10T14:03:59.857Z,5.03
2019-05-10T14:06:19.776Z,4.90
2019-05-10T14:08:50.513Z,5.03
2019-05-10T14:11:19.936Z,5.28
2019-05-10T14:13:50.239Z,5.08
2019-05-10T14:16:22.399Z,5.58
2019-05-10T14:18:50.613Z,6.20
2019-05-10T14:21:20.016Z,4.97
2019-05-10T14:23:50.656Z,4.83
2019-05-10T14:26:20.270Z,4.72
2019-05-10T14:28:53.237Z,5.70
2019-05-10T14:31:20.919Z,5.80
2019-05-10T14:34:14.078Z,5.87
2019-05-10T14:36:22.404Z,6.55
2019-05-10T14:38:56.125Z,5.33
2019-05-10T14:41:23.765Z,7.22
2019-05-10T14:43:53.097Z,6.17
2019-05-10T14:46:22.510Z,7.40
2019-05-10T14:48:51.858Z,5.92
2019-05-10T14:51:21.339Z,7.25
2019-05-10T14:53:50.809Z,6.70
2019-05-10T14:56:20.659Z,6.97
2019-05-10T14:58:49.981Z,6.35
2019-05-10T15:01:19.588Z,6.10
2019-05-10T15:03:48.939Z,6.30
2019-05-10T15:06:18.334Z,6.65
2019-05-10T15:08:48.006Z,6.50
2019-05-10T15:11:17.344Z,5.58
2019-05-10T15:13:46.677Z,5.70
2019-05-10T15:16:26.406Z,5.90
2019-05-10T15:18:47.357Z,5.33
2019-05-10T15:21:16.694Z,5.08
2019-05-10T15:23:46.031Z,5.60
2019-05-10T15:26:15.358Z,5.33
2019-05-10T15:28:44.699Z,4.83
2019-05-10T15:31:14.018Z,5.05
2019-05-10T15:33:43.706Z,4.80
2019-05-10T15:36:13.018Z,2.60
2019-05-10T15:38:49.972Z,4.40
2019-05-10T15:41:16.893Z,4.67
2019-05-10T15:43:48.980Z,5.08
2019-05-10T15:46:15.535Z,4.22
2019-05-10T15:48:44.861Z,4.30
2019-05-10T15:51:16.871Z,4.08
2019-05-10T15:53:45.304Z,4.50
2019-05-10T15:56:14.648Z,4.00
2019-05-10T15:58:44.006Z,5.55
2019-05-10T16:01:14.380Z,3.60
2019-05-10T16:03:43.918Z,3.70
2019-05-10T16:06:13.242Z,3.80
2019-05-10T16:08:42.575Z,4.20
2019-05-10T16:11:19.155Z,2.75
2019-05-10T16:13:42.954Z,3.40
2019-05-10T16:16:12.282Z,4.33
2019-05-10T16:18:41.824Z,5.55
2019-05-10T16:21:15.117Z,5.55
2019-05-10T16:23:46.652Z,5.30
2019-05-10T16:26:17.547Z,5.85
2019-05-10T16:28:44.995Z,6.00
2019-05-10T16:31:14.320Z,6.72
2019-05-10T16:33:43.665Z,6.87
2019-05-10T16:36:14.687Z,7.50
2019-05-10T16:38:44.018Z,10.45
2019-05-10T16:41:13.366Z,11.88
2019-05-10T16:43:42.701Z,12.43
2019-05-10T16:46:12.303Z,10.80
2019-05-10T16:48:41.644Z,11.78
2019-05-10T16:51:12.851Z,11.78
2019-05-10T16:53:43.710Z,11.00
2019-05-10T16:56:18.663Z,10.58
2019-05-10T16:58:47.763Z,10.20
2019-05-10T17:01:18.813Z,11.43
2019-05-10T17:03:51.296Z,11.15
2019-05-10T17:06:17.848Z,16.97
2019-05-10T17:08:47.194Z,15.63
2019-05-10T17:11:16.855Z,11.43
2019-05-10T17:13:46.199Z,12.63
2019-05-10T17:16:17.200Z,12.50
2019-05-10T17:18:49.948Z,13.53
2019-05-10T17:21:18.703Z,12.47
2019-05-10T17:23:48.620Z,10.65
2019-05-10T17:26:18.060Z,10.53
2019-05-10T17:28:47.687Z,11.48
2019-05-10T17:31:17.051Z,10.95
2019-05-10T17:33:46.373Z,10.45
2019-05-10T17:36:19.899Z,13.30
2019-05-10T17:38:53.471Z,16.95
2019-05-10T17:41:19.472Z,13.18
2019-05-10T17:43:49.472Z,13.43
2019-05-10T17:46:20.733Z,13.62
2019-05-10T17:48:49.847Z,11.03
2019-05-10T17:51:19.183Z,11.25
2019-05-10T17:53:54.889Z,13.30
2019-05-10T17:56:19.636Z,13.25
2019-05-10T17:58:49.199Z,11.03
2019-05-10T18:01:18.547Z,11.65
2019-05-10T18:03:47.884Z,10.80
2019-05-10T18:06:24.206Z,11.65
2019-05-10T18:08:48.269Z,11.28
2019-05-10T18:11:17.606Z,11.48
2019-05-10T18:13:46.950Z,10.03
2019-05-10T18:16:16.294Z,9.45
2019-05-10T18:18:47.052Z,9.28
2019-05-10T18:21:22.256Z,9.30
2019-05-10T18:23:52.568Z,9.20
2019-05-10T18:26:18.825Z,9.53
2019-05-10T18:28:48.630Z,9.70
2019-05-10T18:31:17.981Z,9.58
2019-05-10T18:33:54.239Z,10.03
2019-05-10T18:36:19.326Z,10.53
2019-05-10T18:38:48.667Z,10.08
2019-05-10T18:41:18.004Z,10.85
2019-05-10T18:43:47.348Z,11.55
2019-05-10T18:46:16.690Z,11.03
2019-05-10T18:48:46.088Z,11.93
2019-05-10T18:51:17.917Z,11.08
2019-05-10T18:53:46.477Z,11.80
2019-05-10T18:56:15.810Z,20.32
2019-05-10T18:58:45.153Z,20.32
2019-05-10T19:01:14.732Z,21.62
2019-05-10T19:03:44.083Z,17.57
2019-05-10T19:06:13.810Z,16.82
2019-05-10T19:08:44.192Z,19.75
2019-05-10T19:11:15.020Z,18.57
2019-05-10T19:13:47.859Z,16.17
2019-05-10T19:16:15.585Z,16.45
2019-05-10T19:18:44.923Z,18.82
2019-05-10T19:21:14.559Z,24.02
2019-05-10T19:23:43.941Z,23.90
2019-05-10T19:26:13.277Z,24.55
2019-05-10T19:28:42.847Z,23.45
2019-05-10T19:31:12.174Z,22.37
2019-05-10T19:33:41.578Z,21.62
2019-05-10T19:36:13.095Z,17.67
2019-05-10T19:38:43.148Z,17.12
2019-05-10T19:41:12.482Z,16.52
2019-05-10T19:43:41.815Z,15.38
2019-05-10T19:46:11.378Z,15.40
2019-05-10T19:48:40.961Z,14.43
2019-05-10T19:51:11.605Z,13.98
2019-05-10T19:53:43.629Z,16.37
2019-05-10T19:56:13.239Z,15.58
2019-05-10T19:58:42.578Z,16.02
2019-05-10T20:01:12.144Z,16.65
2019-05-10T20:03:41.482Z,16.20
2019-05-10T20:06:10.817Z,15.53
2019-05-10T20:08:40.146Z,15.30
2019-05-10T20:11:09.555Z,15.50
2019-05-10T20:13:40.087Z,15.85
2019-05-10T20:16:09.481Z,18.60
2019-05-10T20:18:39.570Z,25.90
2019-05-10T20:21:09.123Z,27.10
2019-05-10T20:23:38.639Z,23.25
2019-05-10T20:26:08.013Z,22.13
2019-05-10T20:28:37.553Z,19.80
2019-05-10T20:31:07.100Z,19.57
2019-05-10T20:33:36.433Z,18.00
2019-05-10T20:36:06.271Z,17.92
2019-05-10T20:38:35.927Z,16.97
2019-05-10T20:41:06.469Z,18.42
2019-05-10T20:43:35.955Z,18.35
2019-05-10T20:46:07.150Z,18.92
2019-05-10T20:48:37.411Z,17.98
2019-05-10T20:51:07.996Z,18.77
2019-05-10T20:53:37.762Z,19.35
2019-05-10T20:56:07.117Z,22.10
2019-05-10T20:58:37.685Z,21.70
2019-05-10T21:01:07.090Z,21.75
2019-05-10T21:03:36.725Z,21.85
2019-05-10T21:06:06.421Z,22.35
2019-05-10T21:08:36.085Z,21.42
2019-05-10T21:11:05.500Z,22.17
2019-05-10T21:13:35.003Z,23.12
2019-05-10T21:16:04.681Z,21.82
2019-05-10T21:18:34.082Z,21.77
2019-05-10T21:21:04.137Z,22.75
2019-05-10T21:23:33.524Z,21.75
2019-05-10T21:26:03.146Z,23.07
2019-05-10T21:28:32.718Z,23.60
2019-05-10T21:31:02.185Z,24.77
2019-05-10T21:33:32.059Z,25.43
2019-05-10T21:36:01.388Z,25.90
2019-05-10T21:38:33.441Z,24.35
2019-05-10T21:41:02.109Z,23.30
2019-05-10T21:43:31.727Z,23.67
2019-05-10T21:46:01.063Z,22.27
2019-05-10T21:48:30.394Z,22.77
2019-05-10T21:50:59.802Z,23.42
2019-05-10T21:53:30.463Z,23.40
2019-05-10T21:55:59.804Z,22.60
2019-05-10T21:58:29.146Z,25.02
2019-05-10T22:00:58.499Z,30.82
2019-05-10T22:03:29.447Z,31.02
2019-05-10T22:05:59.035Z,26.65
2019-05-10T22:08:28.362Z,25.68
2019-05-10T22:10:57.692Z,26.40
2019-05-10T22:13:27.095Z,25.85
2019-05-10T22:15:56.434Z,26.42
2019-05-10T22:18:26.044Z,25.68
2019-05-10T22:20:55.379Z,25.52
2019-05-10T22:23:24.738Z,25.15
2019-05-10T22:25:54.074Z,25.72
2019-05-10T22:28:23.411Z,26.02
2019-05-10T22:30:52.751Z,25.37
2019-05-10T22:33:22.094Z,25.30
2019-05-10T22:35:51.419Z,25.97
2019-05-10T22:38:20.764Z,26.87
2019-05-10T22:40:50.106Z,26.65
2019-05-10T22:43:19.451Z,25.60
2019-05-10T22:45:48.784Z,25.10
2019-05-10T22:48:18.136Z,24.92
2019-05-10T22:50:47.467Z,26.85
2019-05-10T22:53:17.053Z,25.88
2019-05-10T22:55:46.698Z,26.42
2019-05-10T22:58:16.029Z,26.90
2019-05-10T23:00:45.372Z,26.85
2019-05-10T23:03:15.002Z,26.45
2019-05-10T23:05:44.337Z,24.85
2019-05-10T23:08:13.674Z,25.25
2019-05-10T23:10:43.009Z,24.80
2019-05-10T23:13:12.619Z,24.55
2019-05-10T23:15:42.938Z,24.30
2019-05-10T23:18:12.271Z,23.55
2019-05-10T23:20:41.601Z,23.95
2019-05-10T23:23:12.182Z,24.43
2019-05-10T23:25:41.517Z,24.75
2019-05-10T23:28:11.196Z,25.20
2019-05-10T23:30:40.522Z,24.82
2019-05-10T23:33:10.197Z,24.50
2019-05-10T23:35:39.529Z,25.30
2019-05-10T23:38:09.221Z,25.15
2019-05-10T23:40:38.547Z,27.52
2019-05-10T23:43:07.889Z,25.45
2019-05-10T23:45:37.225Z,24.90
2019-05-10T23:48:06.637Z,25.02
2019-05-10T23:50:36.230Z,25.95
2019-05-10T23:53:05.564Z,27.75
2019-05-10T23:55:34.898Z,25.92
2019-05-10T23:58:04.235Z,25.97
